Atyrau, Kazakhstan
Current Conditions -  °F | °C
As of 5:00 AM on Wednesday 28 Jan 2015 (Local Time) from UATG Reporting Station
Clear Clear  
Wind Chill: -13°   Ceiling: Unl
Heat Index:   Visibility: 6mi
Dew Point:   Wind: 16mph
Humidity: 85%   Direction: 120°ESE
Pressure: 30.5"   Gusts: NA
Location:  47.12°N, 51.88°E
Report Text: UATG 280100Z 12007MPS CAVOK M15/M17 Q1033 R14/82//68 NOSIG RMKQFE776/1035
Loading
Personal Weather Stations






























Interactive Weather Map New forecast layout! Learn more

10-Day Weather Forecast

Advertisements
Track Severe Weather on mobile